Lincolnton, NC

2:52 AM EST on December 29, 2014 (GMT -0500)
Lincolnton-Lincoln County Regional | Change Station
CLOSE
Current Station
Airport
Location: Lincolnton,
Elevation: 876 ft
Nearby Weather Stations
Active Advisory: Special Statement

Elev 876 ft 35.48 °N, 81.16 °W | Updated 17 minutes ago

Rain
Rain
54 °F
Feels Like 54 °F
N
0
Wind Variable Wind from North

Today
High -- | Low -- °F
--% Chance of Precip.
Yesterday
High -- | Low -- °F
Precip. -- in
7:33 AM 5:20 PM
First Quarter, 56% visible
Pressure 30.05 in
Visibility 4.0 miles
Clouds Overcast 300 ft
Dew Point 54 °F
Humidity 99%
Rainfall 0.05 in
Snow Depth Not available.
UV 0 out of 12
Pollen .30 out of 12
Air Quality Not available.
Flu Activity Not available.
METAR KIPJ 290735Z AUTO 00000KT 4SM RA OVC003 12/12 A3005 RMK AO2 P0003 T01220120

More Conditions Fewer Conditions

Pressure 30.05 in
Visibility 4.0 miles
Clouds Overcast 300 ft
Dew Point 54 °F
Humidity 99%
Rainfall 0.05 in
Snow Depth Not available.
UV 0 out of 12
Pollen .30 out of 12
Air Quality Not available.
Flu Activity Not available.
METAR KIPJ 290735Z AUTO 00000KT 4SM RA OVC003 12/12 A3005 RMK AO2 P0003 T01220120

More Conditions Fewer Conditions

10-Day Weather Forecast

Almanac

Astronomy

Dec. 29, 2014 Rise Set
Actual Time
Civil Twilight
Nautical Twilight
Astronomical Twilight
Moon
Length of Visible Light
Length of Day
Tomorrow will be .
, % of the Moon is Illuminated

Today's Extremes

State Highs State Lows

Community

WunderPhotos

Upload Photos

1,781,547 photos uploaded!

WunderBlogs® & News

Nearby

Air Quality

  Air Quality AQ Index Pollutant
Not available.

Snow Depth

Station Depth Elevation

Earthquake Activity

City Distance Mag. Time & Date
Minimum magnitude displayed is 2.5.

Coastal Water Temperatures

Place Temperature

Nearby Weather Stations